Time;durP1;ratioP1;P1;durP2;ratioP2;P2;SDS_P1;SDS_P2;PMS_P1;PMS_P2;Temp;Humidity;BMP_temperature;BMP_pressure;BME280_temperature;BME280_humidity;BME280_pressure;Samples;Min_cycle;Max_cycle;Signal;HPM_P1;HPM_P2
2024/04/05 00:01:03;;;;;;;9.02;5.95;;;;;;;10.99;88.40;98125.16;5036495;28;20483;-75
2024/04/05 00:03:28;;;;;;;10.85;6.88;;;;;;;10.93;88.57;98120.78;5069954;28;20059;-75
2024/04/05 00:05:54;;;;;;;7.45;5.60;;;;;;;10.92;88.79;98113.75;5075823;28;20480;-75
2024/04/05 00:08:24;;;;;;;11.43;5.82;;;;;;;10.93;88.77;98120.78;5074320;28;20096;-74
2024/04/05 00:10:50;;;;;;;8.23;5.57;;;;;;;10.88;88.70;98107.22;5042299;28;20119;-73
2024/04/05 00:13:15;;;;;;;7.47;4.95;;;;;;;10.75;88.58;98096.00;5034561;28;20057;-73
2024/04/05 00:15:41;;;;;;;9.73;5.60;;;;;;;10.81;88.93;98106.59;5051665;28;20430;-73
2024/04/05 00:18:06;;;;;;;10.23;6.47;;;;;;;10.81;88.74;98111.97;5056327;28;20446;-73
2024/04/05 00:20:32;;;;;;;9.68;6.20;;;;;;;10.89;88.89;98125.03;5037482;28;20087;-73
2024/04/05 00:22:57;;;;;;;7.07;5.35;;;;;;;10.89;89.09;98130.41;5052811;28;20032;-73
2024/04/05 00:25:23;;;;;;;8.88;5.72;;;;;;;10.75;88.98;98112.16;5067315;28;20036;-74
2024/04/05 00:27:49;;;;;;;7.97;5.13;;;;;;;10.72;89.33;98107.25;5038373;28;20020;-73
2024/04/05 00:30:14;;;;;;;8.07;4.50;;;;;;;10.70;89.68;98115.59;5040571;28;20036;-73
2024/04/05 00:32:39;;;;;;;8.45;5.15;;;;;;;10.81;89.18;98138.09;5040777;28;20024;-73
2024/04/05 00:35:05;;;;;;;8.02;4.60;;;;;;;10.78;89.38;98131.31;5040681;28;20407;-73
2024/04/05 00:37:30;;;;;;;8.35;5.20;;;;;;;10.76;89.74;98117.28;5051408;28;20036;-75
2024/04/05 00:39:56;;;;;;;9.25;5.10;;;;;;;10.73;89.61;98119.66;5023424;28;20072;-75
2024/04/05 00:42:21;;;;;;;9.57;5.20;;;;;;;10.53;89.27;98093.25;5054736;28;20028;-73
2024/04/05 00:44:47;;;;;;;6.85;4.97;;;;;;;10.59;89.68;98107.59;5040533;28;20033;-73
2024/04/05 00:47:12;;;;;;;10.75;4.97;;;;;;;10.59;89.03;98118.38;5074570;28;20024;-73
2024/04/05 00:49:38;;;;;;;7.45;5.07;;;;;;;10.52;89.82;98118.56;5033026;28;20463;-74
2024/04/05 00:52:04;;;;;;;6.18;4.90;;;;;;;10.32;89.86;98104.75;5040023;28;20042;-73
2024/04/05 00:54:29;;;;;;;8.25;5.22;;;;;;;10.38;90.25;98111.88;5039581;28;20048;-74
2024/04/05 00:56:56;;;;;;;9.00;5.68;;;;;;;10.35;90.97;98112.34;5040130;28;20020;-74
2024/04/05 00:59:22;;;;;;;11.75;5.63;;;;;;;10.50;90.42;98131.44;5038562;28;20041;-74
2024/04/05 01:01:48;;;;;;;8.02;5.32;;;;;;;10.43;90.18;98114.63;5050425;28;20394;-74
2024/04/05 01:04:13;;;;;;;8.20;5.30;;;;;;;10.42;90.82;98104.91;5068340;28;20485;-74
2024/04/05 01:06:39;;;;;;;9.43;5.47;;;;;;;10.50;91.02;98114.47;5040329;28;20021;-74
2024/04/05 01:09:04;;;;;;;9.32;5.78;;;;;;;10.41;90.67;98103.28;5039614;28;20043;-73
2024/04/05 01:11:31;;;;;;;10.45;5.38;;;;;;;10.58;90.74;98128.31;5067642;28;20364;-73
2024/04/05 01:13:56;;;;;;;9.43;6.03;;;;;;;10.59;91.54;98118.38;5034938;28;20041;-73
2024/04/05 01:16:22;;;;;;;11.60;6.13;;;;;;;10.48;91.22;98112.00;5053100;28;20024;-73
2024/04/05 01:18:48;;;;;;;9.23;5.88;;;;;;;10.64;91.23;98127.31;5073383;28;20047;-73
2024/04/05 01:21:13;;;;;;;8.93;5.65;;;;;;;10.67;91.06;98126.84;5057411;28;20099;-74
2024/04/05 01:23:40;;;;;;;10.93;5.78;;;;;;;10.66;91.27;98113.63;5039034;28;20117;-74
2024/04/05 01:26:06;;;;;;;8.63;5.93;;;;;;;10.68;91.67;98116.91;5036777;28;20025;-75
2024/04/05 01:28:31;;;;;;;9.15;5.47;;;;;;;10.70;92.07;98125.53;5039229;28;20044;-74
2024/04/05 01:30:57;;;;;;;8.00;5.78;;;;;;;10.72;91.24;98113.47;5040451;28;20024;-74
2024/04/05 01:33:22;;;;;;;10.70;5.68;;;;;;;10.75;91.76;98122.94;5040918;28;20032;-74
2024/04/05 01:35:48;;;;;;;10.40;5.75;;;;;;;10.78;92.04;98122.44;5041165;28;20020;-74
2024/04/05 01:38:13;;;;;;;8.02;5.57;;;;;;;10.67;92.06;98099.09;5057109;23;20525;-74
2024/04/05 01:40:38;;;;;;;9.73;5.80;;;;;;;10.73;91.97;98101.63;5015075;28;20464;-75
2024/04/05 01:43:04;;;;;;;13.15;5.80;;;;;;;10.75;92.23;98096.00;5047523;28;20033;-75
2024/04/05 01:45:29;;;;;;;7.75;5.25;;;;;;;10.90;92.04;98113.19;5028807;28;20124;-75
2024/04/05 01:47:54;;;;;;;9.18;5.70;;;;;;;10.85;91.67;98105.00;5015216;28;20032;-75
2024/04/05 01:50:20;;;;;;;9.80;5.60;;;;;;;10.82;92.11;98102.84;5017288;28;20459;-75
2024/04/05 01:52:47;;;;;;;10.95;5.45;;;;;;;10.82;92.08;98092.06;5052181;28;20032;-75
2024/04/05 01:55:13;;;;;;;11.07;5.40;;;;;;;10.94;92.11;98100.84;5017838;28;20028;-74
2024/04/05 01:57:38;;;;;;;8.02;5.15;;;;;;;10.95;92.35;98107.84;4991141;28;20128;-75
2024/04/05 02:00:08;;;;;;;8.70;5.15;;;;;;;10.82;92.01;98083.16;5012887;28;20028;-75
2024/04/05 02:02:45;;;;;;;9.30;5.35;;;;;;;10.94;91.59;98087.38;4999719;28;20060;-74
2024/04/05 02:05:10;;;;;;;10.05;5.43;;;;;;;10.85;91.98;98078.06;5017301;28;20040;-73
2024/04/05 02:07:35;;;;;;;7.75;5.40;;;;;;;10.93;91.93;98082.22;5026480;28;20016;-74
2024/04/05 02:10:01;;;;;;;8.63;5.63;;;;;;;10.87;92.25;98078.66;5016782;28;20033;-74
2024/04/05 02:12:29;;;;;;;8.80;5.28;;;;;;;11.02;92.25;98095.03;5033865;28;20031;-73
2024/04/05 02:14:55;;;;;;;9.63;4.78;;;;;;;10.96;91.91;98092.50;5024682;28;20080;-73
2024/04/05 02:17:20;;;;;;;10.27;4.97;;;;;;;10.97;92.37;98089.56;5033557;28;20048;-73
2024/04/05 02:19:46;;;;;;;7.82;5.20;;;;;;;10.91;92.16;98065.50;5016818;28;20479;-73
2024/04/05 02:22:11;;;;;;;10.70;4.45;;;;;;;11.01;91.86;98073.72;5013619;28;20052;-73
2024/04/05 02:24:37;;;;;;;10.57;5.03;;;;;;;10.96;92.06;98079.88;5017758;28;20055;-76
2024/04/05 02:27:03;;;;;;;8.82;4.68;;;;;;;10.96;92.18;98077.16;5028978;28;20024;-76
2024/04/05 02:29:28;;;;;;;8.93;4.72;;;;;;;10.98;91.77;98064.25;5033053;28;20044;-76
2024/04/05 02:31:54;;;;;;;6.55;4.72;;;;;;;10.98;92.15;98066.13;5023539;28;20125;-76
2024/04/05 02:34:20;;;;;;;6.25;4.53;;;;;;;11.00;92.24;98072.91;5016421;28;20131;-74
2024/04/05 02:36:46;;;;;;;8.48;4.68;;;;;;;11.18;92.11;98093.31;5033574;28;20024;-74
2024/04/05 02:39:11;;;;;;;8.50;4.80;;;;;;;11.10;92.32;98088.38;5013144;28;20037;-74
2024/04/05 02:41:37;;;;;;;11.57;5.55;;;;;;;11.20;92.22;98098.50;5009050;28;20403;-74
2024/04/05 02:44:02;;;;;;;8.77;4.70;;;;;;;11.24;92.18;98099.59;5017419;28;20104;-74
2024/04/05 02:46:27;;;;;;;7.70;4.82;;;;;;;11.13;91.97;98076.28;5033840;28;20472;-74
2024/04/05 02:48:53;;;;;;;9.02;5.43;;;;;;;11.11;91.77;98074.66;5033753;28;20043;-75
2024/04/05 02:51:19;;;;;;;8.95;5.55;;;;;;;11.13;91.67;98076.28;4998689;28;20105;-75
2024/04/05 02:53:45;;;;;;;6.32;4.85;;;;;;;10.78;92.36;98026.25;5017030;28;20037;-76
2024/04/05 02:56:10;;;;;;;9.40;4.43;;;;;;;11.15;91.69;98079.56;5033707;28;20021;-76
2024/04/05 02:58:36;;;;;;;8.75;4.65;;;;;;;11.30;92.36;98107.50;5000380;28;20419;-77
2024/04/05 03:01:01;;;;;;;10.38;4.93;;;;;;;11.32;92.08;98104.56;5017760;28;20024;-74
2024/04/05 03:03:27;;;;;;;7.68;4.38;;;;;;;11.29;91.59;98091.59;5025871;28;20481;-74
2024/04/05 03:05:52;;;;;;;11.23;4.65;;;;;;;11.28;91.81;98088.06;5033600;28;20028;-75
2024/04/05 03:08:17;;;;;;;8.27;4.70;;;;;;;11.24;91.79;98086.13;5000422;28;20064;-75
2024/04/05 03:10:43;;;;;;;7.07;4.65;;;;;;;11.35;92.66;98109.44;5006032;28;20025;-77
2024/04/05 03:13:08;;;;;;;9.15;5.32;;;;;;;11.35;91.91;98106.75;5017778;28;20115;-77
2024/04/05 03:15:34;;;;;;;9.77;4.82;;;;;;;11.43;91.76;98114.41;5020379;28;20110;-78
2024/04/05 03:18:00;;;;;;;8.25;4.63;;;;;;;11.31;91.95;98089.44;5020799;28;20031;-79
2024/04/05 03:20:25;;;;;;;11.20;4.88;;;;;;;11.21;92.02;98083.94;5021587;28;20037;-79
2024/04/05 03:22:50;;;;;;;8.05;5.35;;;;;;;11.39;91.95;98108.69;4999780;28;20155;-76
2024/04/05 03:25:16;;;;;;;8.40;5.63;;;;;;;11.23;91.51;98087.19;5023008;28;20033;-77
2024/04/05 03:27:41;;;;;;;11.93;5.75;;;;;;;11.25;91.68;98095.88;5007186;28;20117;-77
2024/04/05 03:30:07;;;;;;;9.35;5.38;;;;;;;11.43;91.55;98101.75;5021456;28;20029;-76
2024/04/05 03:32:33;;;;;;;11.10;5.95;;;;;;;11.40;91.71;98104.13;5010922;28;20041;-77
2024/04/05 03:34:58;;;;;;;8.77;5.18;;;;;;;11.37;91.48;98104.59;5034082;28;20062;-77
2024/04/05 03:37:24;;;;;;;10.02;5.70;;;;;;;11.32;91.25;98080.31;5000628;28;20036;-77
2024/04/05 03:39:53;;;;;;;7.72;5.13;;;;;;;11.55;91.50;98115.09;5029573;28;20104;-78
2024/04/05 03:42:21;;;;;;;10.18;6.13;;;;;;;11.46;91.24;98103.13;5020347;28;20514;-78
2024/04/05 03:44:47;;;;;;;8.73;5.15;;;;;;;11.45;91.31;98096.09;5023069;28;20025;-76
2024/04/05 03:47:13;;;;;;;7.05;5.20;;;;;;;11.42;91.42;98085.81;5005676;28;20131;-77
2024/04/05 03:49:38;;;;;;;7.75;4.63;;;;;;;11.48;91.63;98112.56;5000552;28;20139;-77
2024/04/05 03:52:04;;;;;;;7.35;4.22;;;;;;;11.41;91.83;98095.75;5019120;28;20761;-76
2024/04/05 03:54:30;;;;;;;10.10;4.07;;;;;;;11.62;91.73;98113.03;5004411;28;20036;-78
2024/04/05 03:56:55;;;;;;;6.05;4.30;;;;;;;11.56;91.18;98108.63;5038636;28;20033;-77
2024/04/05 03:59:20;;;;;;;8.07;4.80;;;;;;;11.58;91.35;98114.56;5023268;28;20120;-79
2024/04/05 04:01:50;;;;;;;10.98;5.47;;;;;;;11.73;91.50;98130.97;5035486;28;20120;-78
2024/04/05 04:04:16;;;;;;;9.02;5.88;;;;;;;11.56;90.90;98097.81;5003513;28;20120;-78
2024/04/05 04:06:42;;;;;;;11.68;6.30;;;;;;;11.63;91.74;98114.63;5021134;28;20017;-77
2024/04/05 04:09:08;;;;;;;10.55;4.82;;;;;;;11.77;91.29;98126.69;5020229;28;20091;-78
2024/04/05 04:11:33;;;;;;;10.07;7.35;;;;;;;11.74;91.22;98116.41;5018549;28;20440;-77
2024/04/05 04:13:58;;;;;;;17.08;11.65;;;;;;;11.79;91.23;98129.94;5013722;28;20037;-77
2024/04/05 04:16:24;;;;;;;11.55;5.07;;;;;;;11.86;90.75;98130.56;5023150;28;20021;-78
2024/04/05 04:18:50;;;;;;;6.80;5.32;;;;;;;11.77;90.98;98119.41;5021954;28;20098;-78
2024/04/05 04:21:15;;;;;;;9.65;5.65;;;;;;;11.74;91.19;98127.19;5022829;28;20017;-78
2024/04/05 04:23:41;;;;;;;7.55;4.47;;;;;;;11.71;91.24;98122.31;5023954;28;20038;-78
2024/04/05 04:26:06;;;;;;;9.77;5.18;;;;;;;11.68;91.09;98120.13;5019990;28;20021;-76
2024/04/05 04:28:34;;;;;;;9.05;4.50;;;;;;;11.60;91.59;98110.56;5001529;28;20030;-76
2024/04/05 04:31:20;;;;;;;6.10;4.22;;;;;;;11.72;90.89;98123.94;5037992;28;20052;-77
2024/04/05 04:33:45;;;;;;;7.50;4.53;;;;;;;11.88;91.31;98139.22;5015876;28;20496;-75
2024/04/05 04:36:11;;;;;;;8.45;4.93;;;;;;;11.83;90.87;98131.09;5053713;28;20078;-77
2024/04/05 04:38:37;;;;;;;5.18;3.60;;;;;;;11.84;91.25;98135.41;5009789;28;20037;-77
2024/04/05 04:41:02;;;;;;;5.75;3.80;;;;;;;11.87;91.06;98129.50;5018608;28;20075;-76
2024/04/05 04:43:28;;;;;;;5.07;3.83;;;;;;;11.85;91.42;98128.94;5002701;28;20412;-76
2024/04/05 04:45:53;;;;;;;8.15;4.63;;;;;;;11.90;91.11;98137.09;5017331;28;20029;-76
2024/04/05 04:48:19;;;;;;;8.57;4.30;;;;;;;11.84;91.18;98121.91;5010449;28;20467;-76
2024/04/05 04:50:44;;;;;;;7.57;4.20;;;;;;;11.85;91.06;98123.56;5034869;28;20021;-77
2024/04/05 04:53:10;;;;;;;6.50;3.90;;;;;;;11.88;90.85;98111.44;5053281;28;20555;-76
2024/04/05 04:55:36;;;;;;;6.32;4.30;;;;;;;11.95;90.91;98123.63;5031256;28;20423;-75
2024/04/05 04:58:01;;;;;;;8.95;4.43;;;;;;;11.93;91.08;98130.34;5004702;28;20040;-78
2024/04/05 05:00:27;;;;;;;9.45;5.65;;;;;;;11.99;91.44;98130.19;5036114;28;20059;-79
2024/04/05 05:02:52;;;;;;;12.63;8.52;;;;;;;11.83;90.88;98104.09;4999734;28;20067;-78
2024/04/05 05:05:17;;;;;;;8.73;5.63;;;;;;;11.94;91.04;98122.03;5016060;28;20029;-79
2024/04/05 05:07:44;;;;;;;7.80;4.45;;;;;;;11.85;90.30;98103.84;5021656;28;20441;-78
2024/04/05 05:10:09;;;;;;;8.68;4.60;;;;;;;11.87;90.82;98110.63;5029350;28;20066;-78
2024/04/05 05:12:36;;;;;;;6.78;4.15;;;;;;;12.05;91.00;98137.25;5007549;28;20068;-79
2024/04/05 05:15:01;;;;;;;22.85;18.42;;;;;;;11.99;91.39;98132.06;5000360;28;20021;-78
2024/04/05 05:17:27;;;;;;;8.18;5.80;;;;;;;12.10;90.59;98131.91;5019238;28;20025;-77
2024/04/05 05:19:52;;;;;;;7.63;4.90;;;;;;;12.14;90.59;98137.59;5017829;28;20029;-77
2024/04/05 05:22:18;;;;;;;8.80;5.45;;;;;;;11.96;90.95;98114.47;5015960;28;20064;-77
2024/04/05 05:24:44;;;;;;;27.45;17.38;;;;;;;12.00;91.13;98128.25;5034933;28;20021;-77
2024/04/05 05:27:09;;;;;;;22.85;14.77;;;;;;;12.11;90.98;98132.72;4993603;28;20136;-77
2024/04/05 05:29:34;;;;;;;10.93;6.50;;;;;;;12.12;90.68;98135.16;5034672;28;20103;-77
2024/04/05 05:32:00;;;;;;;8.85;5.38;;;;;;;12.12;90.77;98137.84;5002262;28;20037;-77
2024/04/05 05:34:25;;;;;;;6.45;5.30;;;;;;;12.15;90.86;98145.44;5015642;28;20032;-76
2024/04/05 05:36:51;;;;;;;7.03;4.63;;;;;;;12.08;90.87;98117.84;5037759;28;20037;-76
2024/04/05 05:39:19;;;;;;;6.25;4.65;;;;;;;12.12;90.68;98135.16;5031371;28;20039;-76
2024/04/05 05:41:45;;;;;;;7.25;4.70;;;;;;;12.16;91.07;98136.25;5036438;28;20044;-76
2024/04/05 05:44:11;;;;;;;7.15;5.20;;;;;;;12.26;90.89;98152.56;5021156;28;20067;-77
2024/04/05 05:46:36;;;;;;;9.98;4.80;;;;;;;12.12;91.48;98131.63;5017137;28;20029;-76
2024/04/05 05:49:02;;;;;;;6.70;5.10;;;;;;;12.28;91.10;98149.59;5037582;28;20112;-76
2024/04/05 05:51:28;;;;;;;7.03;5.28;;;;;;;12.14;91.50;98122.22;5014618;28;20040;-76
2024/04/05 05:53:53;;;;;;;13.25;7.88;;;;;;;12.27;91.66;98148.00;5021838;28;20397;-77
2024/04/05 05:56:18;;;;;;;17.02;5.95;;;;;;;12.24;91.55;98160.09;4996804;28;20193;-76
2024/04/05 05:58:44;;;;;;;12.98;8.40;;;;;;;12.26;91.06;98151.75;5002513;28;20044;-76
2024/04/05 06:01:09;;;;;;;10.07;7.63;;;;;;;12.37;91.20;98170.47;5032511;28;20484;-78
2024/04/05 06:03:35;;;;;;;10.90;7.82;;;;;;;12.29;91.34;98157.47;5004870;28;20028;-76
2024/04/05 06:06:02;;;;;;;12.55;6.25;;;;;;;12.26;91.48;98139.06;5017540;28;20037;-77
2024/04/05 06:08:28;;;;;;;9.18;4.93;;;;;;;12.32;91.60;98156.13;5020675;28;20025;-76
2024/04/05 06:10:57;;;;;;;8.50;5.45;;;;;;;12.54;90.74;98185.75;5017938;28;20037;-76
2024/04/05 06:13:23;;;;;;;13.13;5.60;;;;;;;12.47;91.13;98170.59;5034537;28;20043;-77
2024/04/05 06:15:57;;;;;;;9.82;5.22;;;;;;;12.39;91.92;98172.94;5034047;28;20032;-77
2024/04/05 06:18:25;;;;;;;16.55;5.68;;;;;;;12.44;91.09;98165.69;5017783;28;20130;-77
2024/04/05 06:20:58;;;;;;;11.63;6.53;;;;;;;12.45;90.97;98164.63;5001568;28;20024;-76
2024/04/05 06:23:25;;;;;;;11.18;6.43;;;;;;;12.41;91.49;98166.22;5017672;28;20049;-77
2024/04/05 06:25:58;;;;;;;12.45;6.30;;;;;;;12.52;91.47;98171.69;5017391;28;20123;-77
2024/04/05 06:28:24;;;;;;;14.85;6.88;;;;;;;12.34;91.88;98154.81;5017133;28;20369;-76
2024/04/05 06:30:50;;;;;;;12.13;6.43;;;;;;;12.48;91.43;98164.09;5001295;28;20063;-77
2024/04/05 06:33:16;;;;;;;14.23;7.40;;;;;;;12.61;91.98;98191.75;5017502;28;20067;-77
2024/04/05 06:35:43;;;;;;;15.43;9.57;;;;;;;12.61;92.07;98179.06;4989692;28;20025;-77
2024/04/05 06:38:08;;;;;;;13.70;7.95;;;;;;;12.51;91.58;98170.06;5015971;28;20040;-77
2024/04/05 06:40:34;;;;;;;8.63;6.10;;;;;;;12.45;91.86;98156.53;5010525;28;20029;-77
2024/04/05 06:43:01;;;;;;;10.13;5.82;;;;;;;12.65;91.59;98198.28;5011079;28;20061;-77
2024/04/05 06:45:26;;;;;;;12.20;7.53;;;;;;;12.60;91.74;98171.22;5014726;28;20021;-77
2024/04/05 06:47:52;;;;;;;12.68;6.50;;;;;;;12.67;91.64;98169.13;5017499;28;20404;-76
2024/04/05 06:50:17;;;;;;;9.80;6.22;;;;;;;12.75;92.58;98187.56;5001630;28;20492;-77
2024/04/05 06:52:43;;;;;;;11.07;6.28;;;;;;;12.74;92.48;98164.31;5012922;28;20120;-77
2024/04/05 06:55:08;;;;;;;11.65;6.10;;;;;;;12.92;92.10;98172.00;5027549;28;20465;-77
2024/04/05 06:57:34;;;;;;;9.07;5.43;;;;;;;12.95;91.91;98171.50;5010551;28;20045;-77
2024/04/05 07:00:01;;;;;;;7.90;4.97;;;;;;;12.87;91.98;98144.94;5014978;28;20144;-77
2024/04/05 07:02:26;;;;;;;9.23;4.90;;;;;;;13.04;91.86;98159.13;5014709;28;20073;-77
2024/04/05 07:04:52;;;;;;;9.65;4.72;;;;;;;13.11;91.96;98165.16;5001087;28;20119;-77
2024/04/05 07:07:17;;;;;;;8.45;5.20;;;;;;;13.14;91.66;98159.19;5016890;28;20037;-77
2024/04/05 07:09:43;;;;;;;8.60;4.50;;;;;;;13.11;91.86;98148.94;5016717;28;20736;-77
2024/04/05 07:12:09;;;;;;;9.20;5.38;;;;;;;13.19;91.56;98156.53;5017095;28;20040;-77
2024/04/05 07:14:34;;;;;;;11.27;5.25;;;;;;;13.04;90.75;98137.50;5014609;28;20086;-77
2024/04/05 07:17:00;;;;;;;10.73;5.45;;;;;;;13.24;91.36;98180.91;5012293;28;20037;-78
2024/04/05 07:19:26;;;;;;;11.05;5.43;;;;;;;13.11;90.69;98148.94;5004247;28;20024;-77
2024/04/05 07:21:52;;;;;;;8.50;5.15;;;;;;;13.13;91.41;98149.47;5021096;28;20037;-77
2024/04/05 07:24:18;;;;;;;8.18;4.63;;;;;;;13.44;90.86;98189.13;5021032;28;20025;-77
2024/04/05 07:26:43;;;;;;;9.57;4.60;;;;;;;13.41;91.01;98180.72;5021038;28;20037;-77
2024/04/05 07:29:09;;;;;;;10.35;4.90;;;;;;;13.40;90.95;98171.78;5004125;28;20040;-77
2024/04/05 07:31:38;;;;;;;9.88;4.88;;;;;;;13.37;90.70;98152.56;5010777;28;20032;-78
2024/04/05 07:34:04;;;;;;;9.38;4.25;;;;;;;13.51;89.97;98170.75;5023338;28;20021;-77
2024/04/05 07:36:29;;;;;;;6.05;4.50;;;;;;;13.55;90.88;98173.75;5021331;28;20037;-76
2024/04/05 07:38:55;;;;;;;9.38;4.45;;;;;;;13.55;90.71;98174.59;5063664;23;20127;-76
2024/04/05 07:41:20;;;;;;;9.60;4.85;;;;;;;13.69;90.72;98194.66;5022220;28;20033;-75
2024/04/05 07:43:45;;;;;;;8.15;4.40;;;;;;;13.78;90.46;98182.25;5036645;28;20442;-75
2024/04/05 07:46:11;;;;;;;6.55;4.40;;;;;;;13.88;90.24;98188.78;5040074;28;20047;-75
2024/04/05 07:48:36;;;;;;;5.05;4.00;;;;;;;13.91;90.18;98185.56;4999765;28;20010;-75
2024/04/05 07:51:04;;;;;;;8.05;4.18;;;;;;;14.02;89.17;98181.78;5016979;28;20045;-75
2024/04/05 07:53:30;;;;;;;7.00;4.20;;;;;;;14.04;89.22;98185.03;5036032;28;20041;-75
2024/04/05 07:55:55;;;;;;;8.20;4.25;;;;;;;14.11;88.74;98185.59;5022855;28;20113;-75
2024/04/05 07:58:21;;;;;;;9.85;4.72;;;;;;;14.18;88.73;98168.03;5017203;28;20511;-75
2024/04/05 08:00:47;;;;;;;8.00;4.10;;;;;;;14.31;88.43;98166.69;5016056;28;20037;-75
2024/04/05 08:03:12;;;;;;;8.48;4.20;;;;;;;14.44;88.79;98194.09;5016263;28;20032;-75
2024/04/05 08:05:38;;;;;;;6.55;4.18;;;;;;;14.62;88.50;98197.34;5016143;28;20041;-75
2024/04/05 08:08:03;;;;;;;6.70;3.65;;;;;;;14.77;88.23;98200.09;5000193;28;20028;-75
2024/04/05 08:10:31;;;;;;;9.02;3.50;;;;;;;14.79;87.20;98179.75;5033138;28;20041;-75
2024/04/05 08:12:58;;;;;;;8.10;3.53;;;;;;;14.90;86.99;98167.81;5025063;28;20021;-75
2024/04/05 08:15:23;;;;;;;6.00;3.30;;;;;;;14.96;86.49;98169.41;5016198;28;20026;-75
2024/04/05 08:17:49;;;;;;;8.75;3.40;;;;;;;15.22;85.88;98191.91;5015585;28;20373;-74
2024/04/05 08:20:15;;;;;;;7.00;4.18;;;;;;;15.29;85.33;98199.75;5032818;28;20073;-75
2024/04/05 08:22:40;;;;;;;8.30;4.32;;;;;;;15.40;84.46;98188.63;5016241;28;20030;-75
2024/04/05 08:25:07;;;;;;;6.93;3.20;;;;;;;15.45;84.41;98176.97;5004175;28;20191;-75
2024/04/05 08:27:33;;;;;;;7.20;3.00;;;;;;;15.51;83.50;98194.84;5031586;28;20021;-75
2024/04/05 08:29:58;;;;;;;9.68;3.20;;;;;;;15.60;82.94;98187.75;5032730;28;20051;-75
2024/04/05 08:32:24;;;;;;;6.40;2.95;;;;;;;15.75;82.90;98193.16;5015874;28;20029;-75
2024/04/05 08:34:50;;;;;;;8.35;3.40;;;;;;;15.82;82.52;98180.09;5020944;28;20043;-76
2024/04/05 08:37:15;;;;;;;8.30;3.30;;;;;;;15.83;81.48;98185.22;5036249;28;20048;-75
2024/04/05 08:39:41;;;;;;;6.57;2.65;;;;;;;15.82;81.03;98180.88;5014935;28;20127;-75
2024/04/05 08:42:17;;;;;;;4.40;2.53;;;;;;;16.00;80.35;98189.50;5033370;28;20025;-76
2024/04/05 08:44:44;;;;;;;8.07;2.80;;;;;;;16.08;80.81;98205.22;5024846;28;20033;-75
2024/04/05 08:47:10;;;;;;;5.38;2.80;;;;;;;16.13;80.92;98202.47;5015616;28;20388;-76
2024/04/05 08:49:36;;;;;;;9.18;3.17;;;;;;;16.21;80.06;98194.56;5014749;28;20045;-74
2024/04/05 08:52:02;;;;;;;6.18;3.03;;;;;;;16.24;79.88;98183.09;5015544;28;20052;-73
2024/04/05 08:54:28;;;;;;;7.95;3.08;;;;;;;16.37;79.30;98196.09;5000440;28;20045;-75
2024/04/05 08:56:55;;;;;;;6.35;2.70;;;;;;;16.39;79.17;98191.19;5015181;28;20039;-75
2024/04/05 08:59:22;;;;;;;6.55;3.17;;;;;;;16.35;78.66;98168.38;5023572;28;20056;-75
2024/04/05 09:01:50;;;;;;;6.18;2.85;;;;;;;16.52;78.34;98190.56;4998962;28;20029;-72
2024/04/05 09:04:17;;;;;;;6.72;2.40;;;;;;;16.51;78.26;98172.66;5001776;28;20401;-72
2024/04/05 09:06:43;;;;;;;6.20;2.50;;;;;;;16.58;77.91;98175.88;5015244;28;20025;-73
2024/04/05 09:09:09;;;;;;;5.82;2.70;;;;;;;16.63;78.38;98168.75;5022121;28;20460;-74
2024/04/05 09:11:35;;;;;;;8.45;2.53;;;;;;;16.74;77.55;98162.13;4998902;28;20420;-74
2024/04/05 09:14:02;;;;;;;6.13;2.50;;;;;;;16.90;77.32;98179.94;5005679;28;20185;-75
2024/04/05 09:16:27;;;;;;;9.63;2.65;;;;;;;16.93;76.93;98154.91;4999915;28;20030;-74
2024/04/05 09:19:08;;;;;;;5.72;2.20;;;;;;;17.01;76.08;98154.28;5014289;28;20048;-75
2024/04/05 09:21:41;;;;;;;7.20;2.53;;;;;;;17.13;76.42;98173.75;5014791;28;20481;-73
2024/04/05 09:24:07;;;;;;;4.60;2.15;;;;;;;17.16;75.91;98189.50;5014851;28;20124;-75
2024/04/05 09:26:33;;;;;;;6.40;2.92;;;;;;;17.02;75.84;98183.09;5018449;28;20116;-75
2024/04/05 09:29:00;;;;;;;4.30;2.53;;;;;;;17.15;75.44;98185.19;5027690;28;20033;-75
2024/04/05 09:31:26;;;;;;;6.40;2.25;;;;;;;17.33;75.53;98189.06;4983884;28;20472;-73
2024/04/05 09:34:08;;;;;;;5.18;2.17;;;;;;;17.36;75.56;98162.09;5014649;28;20040;-74
2024/04/05 09:36:37;;;;;;;4.55;2.22;;;;;;;17.53;75.54;98167.09;4983380;28;20076;-74
2024/04/05 09:39:06;;;;;;;5.47;2.03;;;;;;;17.54;73.90;98149.66;5013327;28;20042;-74
2024/04/05 09:41:33;;;;;;;4.63;1.73;;;;;;;17.51;73.51;98153.78;5014601;28;20038;-74
2024/04/05 09:44:01;;;;;;;5.10;2.03;;;;;;;17.75;72.09;98156.50;4998140;28;20029;-74
2024/04/05 09:46:27;;;;;;;5.40;2.00;;;;;;;17.91;72.14;98157.91;5014574;28;20097;-74
2024/04/05 09:48:54;;;;;;;4.75;2.08;;;;;;;17.95;71.48;98137.13;5013810;28;20033;-75
2024/04/05 09:51:26;;;;;;;3.67;1.90;;;;;;;17.95;71.72;98151.59;5000595;28;20037;-73
2024/04/05 09:53:52;;;;;;;4.90;2.00;;;;;;;18.11;71.57;98140.50;5014168;28;20045;-73
2024/04/05 09:56:20;;;;;;;4.45;1.85;;;;;;;18.32;72.30;98136.38;4998035;28;20029;-73
2024/04/05 09:58:47;;;;;;;2.95;1.80;;;;;;;18.36;71.65;98126.47;5013428;28;20052;-74
2024/04/05 10:01:14;;;;;;;5.22;2.00;;;;;;;18.46;70.38;98120.91;5002339;28;20059;-75
2024/04/05 10:03:41;;;;;;;5.47;1.90;;;;;;;18.53;70.36;98115.84;5013915;28;20034;-74
2024/04/05 10:06:14;;;;;;;5.93;2.00;;;;;;;18.52;69.33;98103.34;5018172;28;20026;-77
2024/04/05 10:08:39;;;;;;;6.50;2.15;;;;;;;18.60;70.27;98121.75;5005388;28;20495;-73
2024/04/05 10:11:25;;;;;;;5.30;2.70;;;;;;;18.63;70.58;98132.06;4997730;28;20120;-74
2024/04/05 10:13:59;;;;;;;4.75;2.30;;;;;;;18.68;71.36;98123.81;5024247;28;20036;-75
2024/04/05 10:16:25;;;;;;;4.45;1.95;;;;;;;18.72;70.17;98113.91;4997371;28;20041;-74
2024/04/05 10:18:51;;;;;;;6.05;2.15;;;;;;;18.79;69.63;98122.50;5013479;28;20029;-74
2024/04/05 10:21:17;;;;;;;4.88;1.80;;;;;;;18.77;69.27;98105.63;4997350;28;20060;-74
2024/04/05 10:23:44;;;;;;;6.25;2.00;;;;;;;18.84;68.93;98111.50;5031283;28;20025;-75
2024/04/05 10:26:13;;;;;;;6.55;2.03;;;;;;;18.97;68.74;98118.94;5014017;28;20029;-75
2024/04/05 10:28:42;;;;;;;3.92;1.80;;;;;;;19.00;68.54;98093.75;5005965;28;20116;-75
2024/04/05 10:31:07;;;;;;;4.97;1.80;;;;;;;19.07;67.25;98088.72;5013943;28;20046;-75
2024/04/05 10:33:34;;;;;;;5.63;2.30;;;;;;;19.14;66.48;98089.13;5033801;28;20025;-75
2024/04/05 10:36:00;;;;;;;3.50;1.60;;;;;;;19.30;66.09;98101.38;5029520;28;20041;-74
2024/04/05 10:38:29;;;;;;;4.32;1.67;;;;;;;19.15;66.79;98084.47;5004502;28;20066;-74
2024/04/05 10:41:03;;;;;;;6.30;1.85;;;;;;;19.20;65.35;98093.41;5022059;28;20083;-74
2024/04/05 10:43:30;;;;;;;4.45;1.67;;;;;;;19.33;64.79;98089.03;5030211;28;20041;-73
2024/04/05 10:45:57;;;;;;;4.35;1.65;;;;;;;19.39;63.75;98073.41;5022303;28;20030;-73
2024/04/05 10:48:23;;;;;;;4.13;1.65;;;;;;;19.35;64.46;98084.06;5000539;28;20071;-74
2024/04/05 10:50:49;;;;;;;6.40;2.05;;;;;;;19.65;63.74;98093.63;5020333;28;20108;-75
2024/04/05 10:53:16;;;;;;;4.47;1.70;;;;;;;19.70;64.72;98086.09;5017416;28;20029;-74
2024/04/05 10:55:43;;;;;;;7.65;2.45;;;;;;;19.91;63.75;98092.75;5017709;28;20452;-76
2024/04/05 10:58:10;;;;;;;5.65;2.15;;;;;;;19.91;63.68;98059.13;5017576;28;20420;-74
2024/04/05 11:00:35;;;;;;;6.35;2.00;;;;;;;20.00;63.26;98068.22;5000979;28;20026;-75
2024/04/05 11:03:03;;;;;;;3.83;1.40;;;;;;;20.15;63.97;98047.91;5001274;28;20037;-75
2024/04/05 11:05:29;;;;;;;2.60;1.70;;;;;;;20.40;62.92;98070.03;5002368;28;20156;-75
2024/04/05 11:08:02;;;;;;;4.15;1.48;;;;;;;20.43;62.42;98058.47;5017434;28;20034;-74
2024/04/05 11:10:32;;;;;;;2.75;1.40;;;;;;;20.51;61.80;98044.03;5034162;28;20075;-74
2024/04/05 11:12:58;;;;;;;3.22;1.58;;;;;;;20.67;61.83;98045.28;5017613;28;20044;-74
2024/04/05 11:15:23;;;;;;;3.58;1.55;;;;;;;20.60;61.01;98031.22;5019489;28;20132;-76
2024/04/05 11:18:05;;;;;;;2.63;1.35;;;;;;;20.79;60.32;98024.72;5000760;28;20717;-76
2024/04/05 11:20:32;;;;;;;4.43;1.50;;;;;;;20.80;59.63;98031.78;5001429;28;20072;-75
2024/04/05 11:23:03;;;;;;;11.02;2.00;;;;;;;20.96;58.96;98022.84;5000948;28;20021;-75
2024/04/05 11:25:30;;;;;;;3.92;1.25;;;;;;;20.93;56.78;97992.59;5001450;28;20064;-76
2024/04/05 11:27:55;;;;;;;6.38;1.73;;;;;;;21.08;57.64;97986.69;5009764;28;20057;-75